Terminal Aerodrome Forecast
Issued by NWS Charleston, WV

Current Version | Previous Version | Text Only | Print | Product List | Glossary Off
Versions: 1 2 3 4 5 6 7 8 9 10 11 12 13 14 15 16 17 18 19 20 21 22 23 24 25 26 27 28

000
FTUS41 KRLX 191400 AAA
TAFPKB
TAF AMD
KPKB 191403Z 1914/2012 00000KT P6SM BKN003
     FM191530 00000KT P6SM BKN008
     FM191700 00000KT P6SM BKN015
     FM191800 00000KT P6SM BKN025
     FM192100 VRB03KT P6SM BKN035
     FM200100 00000KT 6SM -SHRA BR VCTS BKN035CB
     FM200600 00000KT 4SM SHRA BR VCTS OVC025CB
     FM201100 00000KT 1SM BR VCTS BKN001CB=

USA.gov is the U.S. government's official web portal to all federal, state and local government web resources and services.